createdAt,value
2022-08-25T00:00:49.290Z,101747.63
2022-08-25T00:06:14.798Z,101743.16
2022-08-25T00:11:39.822Z,101738.31
2022-08-25T00:17:03.173Z,101709.06
2022-08-25T00:22:27.690Z,101741.34
2022-08-25T00:27:51.031Z,101736.28
2022-08-25T00:33:14.691Z,101726.00
2022-08-25T00:38:39.475Z,101720.00
2022-08-25T00:44:06.279Z,101723.44
2022-08-25T00:49:39.110Z,101723.78
2022-08-25T00:55:06.437Z,101697.59
2022-08-25T01:00:34.210Z,101723.50
2022-08-25T01:05:58.287Z,101721.78
2022-08-25T01:11:23.449Z,101721.03
2022-08-25T01:16:46.682Z,101719.56
2022-08-25T01:22:16.661Z,101707.78
2022-08-25T01:27:39.795Z,101720.22
2022-08-25T01:33:04.780Z,101706.16
2022-08-25T01:38:29.250Z,101704.50
2022-08-25T01:43:52.398Z,101700.84
2022-08-25T01:49:15.896Z,101693.00
2022-08-25T01:54:40.416Z,101683.59
2022-08-25T02:00:06.193Z,101689.97
2022-08-25T02:05:34.116Z,101679.22
2022-08-25T02:10:58.643Z,101670.72
2022-08-25T02:16:25.053Z,101681.03
2022-08-25T02:21:48.370Z,101676.81
2022-08-25T02:27:12.849Z,101681.97
2022-08-25T02:32:35.947Z,101677.59
2022-08-25T02:37:59.249Z,101680.66
2022-08-25T02:43:24.868Z,101676.56
2022-08-25T02:48:48.400Z,101601.84
2022-08-25T02:54:11.436Z,101666.03
2022-08-25T02:59:36.075Z,101656.81
2022-08-25T03:04:59.211Z,101650.63
2022-08-25T03:10:22.262Z,101644.34
2022-08-25T03:15:46.670Z,101653.94
2022-08-25T03:21:13.368Z,101649.72
2022-08-25T03:26:56.916Z,101639.59
2022-08-25T03:32:21.439Z,101639.69
2022-08-25T03:37:44.724Z,101630.66
2022-08-25T03:43:07.812Z,101626.19
2022-08-25T03:48:32.484Z,101605.53
2022-08-25T03:53:56.294Z,101613.22
2022-08-25T03:59:19.557Z,101606.38
2022-08-25T04:04:43.986Z,101611.91
2022-08-25T04:10:08.509Z,101607.63
2022-08-25T04:15:31.600Z,101588.50
2022-08-25T04:21:03.008Z,101588.50
2022-08-25T04:26:33.714Z,101554.34
2022-08-25T04:31:57.285Z,101574.22
2022-08-25T04:37:21.725Z,101583.31
2022-08-25T04:42:45.753Z,101576.38
2022-08-25T04:48:11.335Z,101574.75
2022-08-25T04:53:36.796Z,101580.66
2022-08-25T04:59:03.307Z,101574.13
2022-08-25T05:04:28.544Z,101578.94
2022-08-25T05:09:53.470Z,101581.34
2022-08-25T05:15:34.294Z,101586.34
2022-08-25T05:20:57.973Z,101581.25
2022-08-25T05:26:22.715Z,101585.75
2022-08-25T05:31:50.151Z,101584.63
2022-08-25T05:37:13.761Z,101585.56
2022-08-25T05:42:38.197Z,101584.16
2022-08-25T05:48:01.594Z,101591.78
2022-08-25T05:53:25.439Z,101591.78
2022-08-25T05:58:50.175Z,101585.56
2022-08-25T06:04:13.628Z,101580.88
2022-08-25T06:09:38.785Z,101591.00
2022-08-25T06:15:03.523Z,101596.41
2022-08-25T06:20:28.267Z,101594.41
2022-08-25T06:25:52.163Z,101595.59
2022-08-25T06:31:17.210Z,101588.22
2022-08-25T06:36:40.612Z,101574.13
2022-08-25T06:42:03.774Z,101581.28
2022-08-25T06:47:28.674Z,101577.41
2022-08-25T06:52:52.186Z,101575.09
2022-08-25T06:58:15.502Z,101576.59
2022-08-25T07:03:40.384Z,101566.81
2022-08-25T07:09:04.754Z,101553.84
2022-08-25T07:14:28.116Z,101567.44
2022-08-25T07:19:53.036Z,101554.19
2022-08-25T07:25:21.284Z,101553.50
2022-08-25T07:30:45.510Z,101528.25
2022-08-25T07:36:16.951Z,101545.06
2022-08-25T07:41:41.873Z,101540.09
2022-08-25T07:47:05.594Z,101542.44
2022-08-25T07:52:30.721Z,101545.81
2022-08-25T07:57:56.069Z,101536.69
2022-08-25T08:03:35.483Z,101543.19
2022-08-25T08:09:05.782Z,101547.00
2022-08-25T08:14:28.929Z,101541.50
2022-08-25T08:19:52.195Z,101539.28
2022-08-25T08:25:18.868Z,101537.44
2022-08-25T08:30:53.328Z,101507.97
2022-08-25T08:36:17.262Z,101526.38
2022-08-25T08:42:19.278Z,101529.66
2022-08-25T08:47:52.789Z,101519.63
2022-08-25T08:53:19.314Z,101518.50
2022-08-25T08:58:49.872Z,101513.47
2022-08-25T09:04:16.983Z,101506.06
2022-08-25T09:09:44.449Z,101490.16
2022-08-25T09:15:19.877Z,101511.44
2022-08-25T09:20:51.538Z,101517.47
2022-08-25T09:26:29.249Z,101520.63
2022-08-25T09:31:59.500Z,101516.81
2022-08-25T09:37:24.533Z,101497.81
2022-08-25T09:42:49.620Z,101480.00
2022-08-25T09:48:25.990Z,101497.53
2022-08-25T09:53:53.610Z,101479.97
2022-08-25T09:59:34.213Z,101483.53
2022-08-25T10:04:59.890Z,101485.28
2022-08-25T10:10:28.595Z,101484.13
2022-08-25T10:16:05.435Z,101474.34
2022-08-25T10:21:45.159Z,101475.78
2022-08-25T10:27:15.219Z,101464.13
2022-08-25T10:33:08.156Z,101464.91
2022-08-25T10:38:38.761Z,101461.72
2022-08-25T10:44:30.043Z,101459.66
2022-08-25T10:49:56.606Z,101430.44
2022-08-25T10:55:27.948Z,101436.13
2022-08-25T11:00:57.054Z,101426.59
2022-08-25T11:06:22.739Z,101425.69
2022-08-25T11:11:51.401Z,101417.53
2022-08-25T11:17:18.232Z,101406.47
2022-08-25T11:22:45.416Z,101404.50
2022-08-25T11:28:13.524Z,101400.47
2022-08-25T11:33:36.674Z,101407.44
2022-08-25T11:39:15.418Z,101406.88
2022-08-25T11:44:53.445Z,101405.31
2022-08-25T11:50:30.499Z,101401.25
2022-08-25T11:55:56.052Z,101405.63
2022-08-25T12:02:11.293Z,101397.13
2022-08-25T12:08:22.399Z,101391.16
2022-08-25T12:13:47.411Z,101361.75
2022-08-25T12:19:32.029Z,101388.31
2022-08-25T12:24:59.504Z,101389.91
2022-08-25T12:30:26.169Z,101385.88
2022-08-25T12:35:56.871Z,101388.88
2022-08-25T12:41:24.212Z,101383.50
2022-08-25T12:46:48.337Z,101383.81
2022-08-25T12:52:14.213Z,101375.84
2022-08-25T12:57:44.694Z,101376.38
2022-08-25T13:03:27.034Z,101361.00
2022-08-25T13:09:19.400Z,101366.63
2022-08-25T13:14:46.356Z,101361.69
2022-08-25T13:20:14.885Z,101362.53
2022-08-25T13:25:43.097Z,101347.78
2022-08-25T13:31:10.685Z,101353.84
2022-08-25T13:36:58.775Z,101343.69
2022-08-25T13:42:23.972Z,101346.91
2022-08-25T13:47:55.722Z,101339.75
2022-08-25T13:53:23.952Z,101335.03
2022-08-25T13:58:47.357Z,101336.59
2022-08-25T14:04:29.261Z,101333.75
2022-08-25T14:09:56.086Z,101338.50
2022-08-25T14:15:33.428Z,101346.63
2022-08-25T14:20:59.265Z,101340.69
2022-08-25T14:26:22.458Z,101344.06
2022-08-25T14:31:46.933Z,101336.59
2022-08-25T14:37:15.621Z,101341.81
2022-08-25T14:42:38.874Z,101330.00
2022-08-25T14:48:05.066Z,101336.44
2022-08-25T14:53:35.175Z,101321.56
2022-08-25T14:58:59.598Z,101338.66
2022-08-25T15:04:27.464Z,101330.53
2022-08-25T15:09:51.946Z,101340.69
2022-08-25T15:15:15.322Z,101343.03
2022-08-25T15:20:38.466Z,101337.66
2022-08-25T15:26:02.961Z,101348.13
2022-08-25T15:31:28.517Z,101332.13
2022-08-25T15:36:51.610Z,101341.41
2022-08-25T15:42:16.338Z,101347.28
2022-08-25T15:47:39.540Z,101333.34
2022-08-25T15:53:03.792Z,101344.84
2022-08-25T15:58:33.266Z,101337.06
2022-08-25T16:03:57.164Z,101339.59
2022-08-25T16:09:22.938Z,101356.38
2022-08-25T16:14:47.969Z,101352.75
2022-08-25T16:20:13.907Z,101362.13
2022-08-25T16:25:40.602Z,101361.28
2022-08-25T16:31:07.300Z,101358.63
2022-08-25T16:36:31.841Z,101360.72
2022-08-25T16:41:55.102Z,101341.63
2022-08-25T16:47:20.518Z,101353.81
2022-08-25T16:53:08.049Z,101332.00
2022-08-25T16:58:31.569Z,101344.69
2022-08-25T17:03:58.836Z,101342.34
2022-08-25T17:09:23.858Z,101338.66
2022-08-25T17:14:48.001Z,101334.81
2022-08-25T17:20:13.681Z,101339.66
2022-08-25T17:25:41.401Z,101343.13
2022-08-25T17:31:06.393Z,101340.06
2022-08-25T17:36:31.337Z,101354.91
2022-08-25T17:41:54.969Z,101352.97
2022-08-25T17:47:18.389Z,101363.16
2022-08-25T17:52:42.961Z,101364.69
2022-08-25T17:58:07.421Z,101355.78
2022-08-25T18:03:30.989Z,101359.53
2022-08-25T18:08:59.967Z,101370.94
2022-08-25T18:14:25.611Z,101381.28
2022-08-25T18:19:49.474Z,101392.63
2022-08-25T18:25:15.471Z,101390.19
2022-08-25T18:30:40.455Z,101407.59
2022-08-25T18:36:03.962Z,101412.28
2022-08-25T18:41:31.411Z,101426.25
2022-08-25T18:46:54.510Z,101412.88
2022-08-25T18:52:17.972Z,101431.09
2022-08-25T18:57:42.905Z,101438.44
2022-08-25T19:03:06.146Z,101445.38
2022-08-25T19:08:29.487Z,101450.00
2022-08-25T19:13:54.031Z,101437.91
2022-08-25T19:19:17.174Z,101454.03
2022-08-25T19:24:40.217Z,101463.44
2022-08-25T19:30:09.831Z,101468.56
2022-08-25T19:35:37.462Z,101470.56
2022-08-25T19:41:00.891Z,101483.63
2022-08-25T19:46:31.998Z,101493.47
2022-08-25T19:51:57.499Z,101503.03
2022-08-25T19:57:28.320Z,101501.84
2022-08-25T20:03:07.380Z,101500.66
2022-08-25T20:08:30.616Z,101499.88
2022-08-25T20:13:53.876Z,101513.75
2022-08-25T20:19:18.337Z,101525.94
2022-08-25T20:24:51.124Z,101526.88
2022-08-25T20:30:22.100Z,101542.91
2022-08-25T20:41:16.633Z,101549.31
2022-08-25T20:46:41.552Z,101550.16
2022-08-25T20:52:07.958Z,101555.09
2022-08-25T20:57:31.619Z,101526.34
2022-08-25T21:02:54.982Z,101556.75
2022-08-25T21:08:19.556Z,101561.94
2022-08-25T21:13:47.422Z,101553.03
2022-08-25T21:19:12.305Z,101558.19
2022-08-25T21:24:37.144Z,101564.06
2022-08-25T21:30:00.595Z,101560.84
2022-08-25T21:35:24.670Z,101564.31
2022-08-25T21:40:49.549Z,101564.50
2022-08-25T21:46:22.350Z,101551.97
2022-08-25T21:51:46.192Z,101568.34
2022-08-25T21:57:10.808Z,101583.44
2022-08-25T22:02:34.147Z,101577.03
2022-08-25T22:07:57.978Z,101577.13
2022-08-25T22:13:23.431Z,101570.25
2022-08-25T22:18:46.733Z,101587.13
2022-08-25T22:24:11.699Z,101578.41
2022-08-25T22:29:36.412Z,101525.03
2022-08-25T22:34:59.689Z,101584.81
2022-08-25T22:40:22.983Z,101589.78
2022-08-25T22:45:48.160Z,101584.00
2022-08-25T22:51:16.221Z,101576.69
2022-08-25T22:56:39.745Z,101587.13
2022-08-25T23:02:05.954Z,101574.13
2022-08-25T23:07:30.996Z,101594.53
2022-08-25T23:12:54.207Z,101590.25
2022-08-25T23:18:19.203Z,101594.03
2022-08-25T23:23:43.386Z,101592.81
2022-08-25T23:29:18.082Z,101587.06
2022-08-25T23:34:46.337Z,101603.34
2022-08-25T23:40:11.980Z,101601.47
2022-08-25T23:45:42.360Z,101593.50
2022-08-25T23:51:07.827Z,101600.78
2022-08-25T23:56:31.642Z,101593.31
